createdAt,value
2022-12-20T00:01:22.198Z,33.16
2022-12-20T00:08:56.114Z,33.12
2022-12-20T00:16:32.848Z,33.04
2022-12-20T00:24:10.238Z,33.22
2022-12-20T00:31:48.012Z,33.31
2022-12-20T00:39:18.454Z,33.14
2022-12-20T00:46:49.970Z,33.16
2022-12-20T00:54:21.909Z,33.09
2022-12-20T01:02:10.561Z,33.15
2022-12-20T01:09:46.017Z,33.2
2022-12-20T01:17:24.813Z,32.7
2022-12-20T01:24:57.115Z,33.19
2022-12-20T01:32:31.343Z,33.22
2022-12-20T01:40:12.355Z,33.34
2022-12-20T01:47:49.732Z,33.29
2022-12-20T01:55:42.566Z,33.06
2022-12-20T02:03:30.728Z,33.39
2022-12-20T02:10:58.539Z,33.42
2022-12-20T02:19:15.908Z,33.41
2022-12-20T02:27:27.382Z,33.41
2022-12-20T02:35:23.756Z,33.33
2022-12-20T02:43:06.359Z,33.36
2022-12-20T02:50:54.218Z,33.49
2022-12-20T02:58:39.903Z,33.5
2022-12-20T03:06:31.833Z,33.4
2022-12-20T03:14:00.051Z,33.37
2022-12-20T03:21:19.477Z,33.56
2022-12-20T03:28:55.390Z,33.43
2022-12-20T03:36:24.007Z,33.45
2022-12-20T03:43:44.863Z,33.33
2022-12-20T03:51:18.901Z,33.37
2022-12-20T03:58:46.313Z,33.44
2022-12-20T04:06:23.439Z,33.54
2022-12-20T04:13:54.813Z,33.38
2022-12-20T04:21:27.989Z,33.46
2022-12-20T04:29:03.374Z,33.45
2022-12-20T04:36:34.415Z,33.59
2022-12-20T04:44:04.104Z,33.1
2022-12-20T04:51:35.461Z,32.71
2022-12-20T04:59:06.115Z,32.65
2022-12-20T05:06:30.408Z,32.06
2022-12-20T05:13:50.419Z,32.25
2022-12-20T05:21:18.814Z,32.09
2022-12-20T05:28:38.364Z,31.91
2022-12-20T05:35:50.700Z,32.07
2022-12-20T05:43:09.437Z,31.6
2022-12-20T05:49:38.501Z,30.48
2022-12-20T05:56:02.292Z,30.41
2022-12-20T06:02:25.984Z,30.21
2022-12-20T06:08:51.414Z,30.78
2022-12-20T06:15:18.983Z,30.93
2022-12-20T06:21:56.331Z,30.1
2022-12-20T06:28:20.305Z,29.94
2022-12-20T06:34:51.068Z,29.46
2022-12-20T06:41:16.015Z,29.44
2022-12-20T06:47:47.457Z,29.99
2022-12-20T06:54:11.449Z,29.9
2022-12-20T07:00:49.263Z,30.27
2022-12-20T07:07:12.087Z,30.45
2022-12-20T07:13:39.113Z,30.22
2022-12-20T07:20:14.493Z,30.34
2022-12-20T07:26:41.117Z,30.92
2022-12-20T07:33:12.378Z,30.67
2022-12-20T07:39:38.044Z,30.83
2022-12-20T07:46:05.271Z,30.7
2022-12-20T07:52:35.591Z,30.59
2022-12-20T07:59:20.525Z,30.92
2022-12-20T08:06:10.030Z,31.01
2022-12-20T08:12:47.440Z,30.48
2022-12-20T08:19:11.466Z,30.84
2022-12-20T08:25:41.945Z,30.83
2022-12-20T08:32:16.122Z,31.09
2022-12-20T08:38:43.988Z,31.15
2022-12-20T08:45:05.207Z,31.37
2022-12-20T08:51:45.268Z,31.32
2022-12-20T08:58:09.186Z,31.36
2022-12-20T09:04:37.427Z,31.14
2022-12-20T09:11:12.156Z,31.24
2022-12-20T09:17:43.111Z,31.23
2022-12-20T09:24:13.537Z,31.48
2022-12-20T09:30:49.949Z,31.49
2022-12-20T09:37:11.202Z,31.49
2022-12-20T09:43:46.624Z,31.35
2022-12-20T09:50:33.262Z,31.04
2022-12-20T09:57:32.189Z,31.22
2022-12-20T10:04:30.036Z,30.91
2022-12-20T10:11:40.875Z,30.89
2022-12-20T10:18:47.671Z,31.15
2022-12-20T10:25:46.794Z,31.24
2022-12-20T10:32:38.252Z,31.33
2022-12-20T10:39:26.437Z,31.3
2022-12-20T10:46:33.875Z,30.79
2022-12-20T10:53:36.140Z,31.18
2022-12-20T11:00:30.215Z,31.4
2022-12-20T11:07:15.056Z,31.61
2022-12-20T11:14:07.154Z,31.77
2022-12-20T11:21:16.579Z,31.79
2022-12-20T11:28:32.200Z,31.68
2022-12-20T11:35:35.550Z,31.89
2022-12-20T11:42:48.691Z,32.23
2022-12-20T11:49:58.669Z,32.36
2022-12-20T11:57:06.161Z,32.38
2022-12-20T12:04:09.885Z,32.47
2022-12-20T12:12:04.346Z,32.38
2022-12-20T12:18:42.722Z,32.27
2022-12-20T12:25:41.866Z,32.43
2022-12-20T12:32:29.856Z,32.38
2022-12-20T12:39:38.608Z,32.07
2022-12-20T12:46:38.559Z,32.09
2022-12-20T12:53:31.587Z,31.74
2022-12-20T13:00:29.549Z,31.71
2022-12-20T13:07:42.428Z,31.56
2022-12-20T13:14:16.508Z,31.93
2022-12-20T13:20:53.298Z,31.9
2022-12-20T13:28:12.000Z,32.32
2022-12-20T13:35:52.721Z,33.07
2022-12-20T13:43:35.644Z,33.08
2022-12-20T13:51:31.605Z,33.18
2022-12-20T13:59:18.683Z,33.52
2022-12-20T14:06:57.213Z,33.57
2022-12-20T14:14:43.847Z,33.34
2022-12-20T14:22:19.667Z,33.25
2022-12-20T14:30:13.155Z,33.31
2022-12-20T14:37:57.834Z,33.04
2022-12-20T14:45:48.317Z,33.55
2022-12-20T14:53:37.752Z,33.42
2022-12-20T15:01:43.767Z,33.96
2022-12-20T15:09:44.070Z,33.79
2022-12-20T15:17:10.072Z,33.94
2022-12-20T15:24:30.592Z,34.07
2022-12-20T15:31:52.720Z,34.14
2022-12-20T15:39:25.122Z,34.25
2022-12-20T15:47:02.171Z,34.4
2022-12-20T15:54:31.707Z,34.4
2022-12-20T16:01:54.903Z,34.43
2022-12-20T16:09:30.328Z,34.35
2022-12-20T16:16:59.088Z,33.95
2022-12-20T16:24:17.258Z,34.31
2022-12-20T16:31:41.814Z,34.22
2022-12-20T16:38:52.412Z,34.17
2022-12-20T16:46:24.244Z,34.08
2022-12-20T16:54:19.653Z,33.62
2022-12-20T17:01:57.075Z,34.18
2022-12-20T17:16:57.721Z,34.35
2022-12-20T17:24:14.751Z,34.41
2022-12-20T17:31:37.484Z,34.52
2022-12-20T17:39:04.297Z,34.06
2022-12-20T17:46:39.763Z,33.88
2022-12-20T17:54:15.171Z,34.09
2022-12-20T18:01:55.916Z,34.05
2022-12-20T18:09:37.807Z,34.38
2022-12-20T18:17:01.353Z,34.37
2022-12-20T18:24:29.577Z,34.28
2022-12-20T18:31:55.097Z,34.35
2022-12-20T18:39:14.432Z,34.53
2022-12-20T18:46:27.834Z,34.42
2022-12-20T18:53:49.571Z,34.46
2022-12-20T19:01:14.724Z,34.46
2022-12-20T19:08:40.767Z,34.56
2022-12-20T19:15:54.019Z,34.68
2022-12-20T19:23:20.804Z,34.67
2022-12-20T19:30:35.284Z,34.74
2022-12-20T19:37:55.466Z,34.73
2022-12-20T19:45:16.083Z,34.72
2022-12-20T19:52:29.802Z,34.7
2022-12-20T19:59:56.530Z,34.75
2022-12-20T20:07:18.587Z,34.67
2022-12-20T20:14:37.463Z,34.63
2022-12-20T20:22:17.761Z,34.64
2022-12-20T20:29:42.170Z,34.56
2022-12-20T20:37:08.791Z,34.59
2022-12-20T20:44:39.014Z,34.52
2022-12-20T20:51:58.243Z,34.43
2022-12-20T20:59:10.657Z,34.4
2022-12-20T21:06:57.161Z,34.17
2022-12-20T21:14:08.525Z,34.29
2022-12-20T21:21:27.809Z,34.4
2022-12-20T21:28:50.634Z,34.25
2022-12-20T21:36:14.619Z,34.22
2022-12-20T21:43:32.210Z,34.39
2022-12-20T21:50:57.914Z,34.17
2022-12-20T21:58:17.661Z,34.35
2022-12-20T22:05:37.573Z,34.31
2022-12-20T22:12:53.091Z,34.38
2022-12-20T22:20:10.749Z,34.41
2022-12-20T22:27:33.957Z,34.42
2022-12-20T22:34:48.751Z,34.57
2022-12-20T22:42:05.317Z,34.52
2022-12-20T22:49:21.729Z,34.52
2022-12-20T22:56:58.818Z,34.49
2022-12-20T23:04:29.416Z,34.55
2022-12-20T23:11:47.057Z,34.69
2022-12-20T23:19:11.474Z,34.66
2022-12-20T23:26:49.419Z,34.59
2022-12-20T23:34:22.015Z,34.45
2022-12-20T23:42:05.534Z,34.56
2022-12-20T23:49:36.328Z,34.64
2022-12-20T23:57:13.344Z,34.57
